首页
METAR-TAF:

METAR-TAF

机场 :

哈薩綠洲, 沙特阿拉伯

纬度: 25-18N, 经度: 049-29E, 海拔: 179米

当前天气观测

该预报发布于1小时和13分钟前的16:00 UTC
风速6节,风向
温度 32°C
湿度 12%
气压 1008 hPa
能见度10公里或以上
1500米以下无云,无积雨云

METAR: OEAH 021600Z 17006KT CAVOK 32/M01 Q1008 NOSIG

时间: 20:13 (17:13 UTC)

预报

该预报发布于6小时和13分钟前的11:00 UTC
预报有效从02日的 12点(UTC)到 03日的 18点(UTC)
风速15节,风向南转西南
能見度: 8000
短暂存在
从 02日的 12点(UTC)到 02日的 16点(UTC)
能見度: 4000
高吹尘
成为
从 02日的 18点(UTC)到 02日的 20点(UTC)
风速3节,风向多变

TAF: OEAH 021100Z 0212/0318 20015KT 8000 NSC TEMPO 0212/0216 4000 BLDU BECMG 0218/0220 VRB03KT

超过4000个机场的气象观测和天气预报(METAR&TAF报告)。

可查询的气象台以黄色和红色小点在地图上表示。

将鼠标移到小点上方,可查看气象台名称。

然后点击查看天气观测和预报。

如需切换地图:点击带黑十字的绿色按钮放大地图;点击带横线的绿色按钮缩小地图;或者点击绿色箭头查看邻近地区的地图。


METAR-TAF: